createdAt,value
2023-04-10T00:00:43.737Z,27.40
2023-04-10T00:01:44.006Z,27.39
2023-04-10T00:02:43.941Z,27.40
2023-04-10T00:03:44.075Z,27.40
2023-04-10T00:04:44.012Z,27.39
2023-04-10T00:05:44.042Z,27.40
2023-04-10T00:06:44.112Z,27.39
2023-04-10T00:07:44.155Z,27.39
2023-04-10T00:08:44.209Z,27.39
2023-04-10T00:09:44.258Z,27.39
2023-04-10T00:10:44.351Z,27.37
2023-04-10T00:11:44.406Z,27.39
2023-04-10T00:12:44.493Z,27.37
2023-04-10T00:13:44.511Z,27.41
2023-04-10T00:14:44.570Z,27.39
2023-04-10T00:15:44.618Z,27.40
2023-04-10T00:16:44.727Z,27.37
2023-04-10T00:17:44.799Z,27.40
2023-04-10T00:18:44.798Z,27.39
2023-04-10T00:19:44.866Z,27.34
2023-04-10T00:20:44.946Z,27.40
2023-04-10T00:21:45.016Z,27.39
2023-04-10T00:22:45.055Z,27.37
2023-04-10T00:23:45.111Z,27.37
2023-04-10T00:24:45.161Z,27.36
2023-04-10T00:25:45.232Z,27.36
2023-04-10T00:26:45.283Z,27.36
2023-04-10T00:27:45.342Z,27.36
2023-04-10T00:28:45.428Z,27.36
2023-04-10T00:29:45.474Z,27.36
2023-04-10T00:30:45.522Z,27.36
2023-04-10T00:31:45.650Z,27.36
2023-04-10T00:32:45.765Z,27.37
2023-04-10T00:33:45.700Z,27.34
2023-04-10T00:34:45.778Z,27.37
2023-04-10T00:35:45.841Z,27.36
2023-04-10T00:36:45.888Z,27.36
2023-04-10T00:37:45.942Z,27.34
2023-04-10T00:38:46.023Z,27.33
2023-04-10T00:39:46.073Z,27.36
2023-04-10T00:40:46.131Z,27.36
2023-04-10T00:41:46.208Z,27.36
2023-04-10T00:42:46.247Z,27.34
2023-04-10T00:43:46.326Z,27.36
2023-04-10T00:44:46.359Z,27.37
2023-04-10T00:45:46.858Z,27.37
2023-04-10T00:46:46.472Z,27.34
2023-04-10T00:47:46.573Z,27.33
2023-04-10T00:48:46.599Z,27.34
2023-04-10T00:49:46.651Z,27.33
2023-04-10T00:50:46.712Z,27.36
2023-04-10T00:51:46.765Z,27.34
2023-04-10T00:52:46.842Z,27.34
2023-04-10T00:53:46.908Z,27.34
2023-04-10T00:54:46.962Z,27.34
2023-04-10T00:55:47.000Z,27.33
2023-04-10T00:56:47.081Z,27.33
2023-04-10T00:57:47.152Z,27.34
2023-04-10T00:58:47.177Z,27.33
2023-04-10T00:59:47.241Z,27.34
2023-04-10T01:00:47.301Z,27.30
2023-04-10T01:01:47.383Z,27.33
2023-04-10T01:02:47.454Z,27.32
2023-04-10T01:03:47.473Z,27.34
2023-04-10T01:04:47.495Z,27.33
2023-04-10T01:05:47.551Z,27.33
2023-04-10T01:06:47.583Z,27.32
2023-04-10T01:07:47.643Z,27.32
2023-04-10T01:08:47.686Z,27.32
2023-04-10T01:09:47.740Z,27.34
2023-04-10T01:10:47.801Z,27.30
2023-04-10T01:11:47.869Z,27.30
2023-04-10T01:12:47.934Z,27.32
2023-04-10T01:13:47.987Z,27.32
2023-04-10T01:14:48.034Z,27.33
2023-04-10T01:15:48.093Z,27.32
2023-04-10T01:16:48.140Z,27.32
2023-04-10T01:17:48.219Z,27.29
2023-04-10T01:18:48.213Z,27.29
2023-04-10T01:19:48.231Z,27.29
2023-04-10T01:20:48.294Z,27.29
2023-04-10T01:21:48.326Z,27.32
2023-04-10T01:22:48.377Z,27.29
2023-04-10T01:23:48.416Z,27.27
2023-04-10T01:24:48.481Z,27.27
2023-04-10T01:25:48.527Z,27.27
2023-04-10T01:26:48.584Z,27.29
2023-04-10T01:27:48.712Z,27.32
2023-04-10T01:28:48.699Z,27.30
2023-04-10T01:29:48.753Z,27.30
2023-04-10T01:30:48.868Z,27.29
2023-04-10T01:31:48.837Z,27.27
2023-04-10T01:32:48.898Z,27.29
2023-04-10T01:33:48.949Z,27.27
2023-04-10T01:34:48.983Z,27.30
2023-04-10T01:35:49.039Z,27.26
2023-04-10T01:36:49.046Z,27.30
2023-04-10T01:37:49.081Z,27.30
2023-04-10T01:38:49.135Z,27.26
2023-04-10T01:39:49.184Z,27.29
2023-04-10T01:40:49.206Z,27.27
2023-04-10T01:41:49.252Z,27.29
2023-04-10T01:42:49.297Z,27.29
2023-04-10T01:43:49.329Z,27.29
2023-04-10T01:44:49.430Z,27.26
2023-04-10T01:45:49.422Z,27.27
2023-04-10T01:46:49.583Z,27.29
2023-04-10T01:47:49.558Z,27.27
2023-04-10T01:48:49.556Z,27.27
2023-04-10T01:49:49.557Z,27.29
2023-04-10T01:50:49.581Z,27.26
2023-04-10T01:51:49.624Z,27.27
2023-04-10T01:52:49.713Z,27.26
2023-04-10T01:53:49.721Z,27.27
2023-04-10T01:54:49.745Z,27.26
2023-04-10T01:55:49.762Z,27.27
2023-04-10T01:56:49.823Z,27.27
2023-04-10T01:57:49.856Z,27.29
2023-04-10T01:58:49.905Z,27.26
2023-04-10T01:59:49.979Z,27.27
2023-04-10T02:00:50.008Z,27.26
2023-04-10T02:01:50.061Z,27.26
2023-04-10T02:02:50.192Z,27.25
2023-04-10T02:03:50.153Z,27.23
2023-04-10T02:04:50.253Z,27.27
2023-04-10T02:05:50.247Z,27.26
2023-04-10T02:06:50.284Z,27.25
2023-04-10T02:07:50.323Z,27.25
2023-04-10T02:08:50.371Z,27.23
2023-04-10T02:09:50.434Z,27.25
2023-04-10T02:10:50.493Z,27.26
2023-04-10T02:11:50.510Z,27.25
2023-04-10T02:12:50.569Z,27.27
2023-04-10T02:13:50.609Z,27.26
2023-04-10T02:14:50.696Z,27.25
2023-04-10T02:15:50.782Z,27.25
2023-04-10T02:16:50.812Z,27.25
2023-04-10T02:17:50.913Z,27.26
2023-04-10T02:18:50.907Z,27.25
2023-04-10T02:19:50.945Z,27.23
2023-04-10T02:20:50.993Z,27.25
2023-04-10T02:21:51.004Z,27.23
2023-04-10T02:22:51.036Z,27.26
2023-04-10T02:23:51.140Z,27.26
2023-04-10T02:24:51.143Z,27.23
2023-04-10T02:25:51.198Z,27.23
2023-04-10T02:26:51.236Z,27.22
2023-04-10T02:27:51.278Z,27.23
2023-04-10T02:28:51.324Z,27.25
2023-04-10T02:29:51.333Z,27.25
2023-04-10T02:30:51.436Z,27.26
2023-04-10T02:31:51.380Z,27.20
2023-04-10T02:32:51.468Z,27.25
2023-04-10T02:33:51.518Z,27.25
2023-04-10T02:34:51.439Z,27.23
2023-04-10T02:35:51.456Z,27.23
2023-04-10T02:36:51.464Z,27.23
2023-04-10T02:37:51.470Z,27.26
2023-04-10T02:38:51.474Z,27.22
2023-04-10T02:39:51.499Z,27.22
2023-04-10T02:40:51.506Z,27.20
2023-04-10T02:41:51.562Z,27.23
2023-04-10T02:42:51.555Z,27.23
2023-04-10T02:43:51.666Z,27.23
2023-04-10T02:44:51.586Z,27.23
2023-04-10T02:45:51.573Z,27.22
2023-04-10T02:46:51.610Z,27.22
2023-04-10T02:47:51.657Z,27.22
2023-04-10T02:48:51.628Z,27.20
2023-04-10T02:49:51.635Z,27.25
2023-04-10T02:50:51.649Z,27.25
2023-04-10T02:51:51.673Z,27.23
2023-04-10T02:52:51.702Z,27.22
2023-04-10T02:53:51.817Z,27.26
2023-04-10T02:54:51.741Z,27.23
2023-04-10T02:55:51.737Z,27.23
2023-04-10T02:56:51.770Z,27.23
2023-04-10T02:57:51.802Z,27.22
2023-04-10T02:58:51.812Z,27.23
2023-04-10T02:59:51.815Z,27.22
2023-04-10T03:00:51.834Z,27.26
2023-04-10T03:01:51.976Z,27.25
2023-04-10T03:02:52.076Z,27.23
2023-04-10T03:03:52.083Z,27.23
2023-04-10T03:04:52.020Z,27.23
2023-04-10T03:05:52.041Z,27.23
2023-04-10T03:06:52.081Z,27.25
2023-04-10T03:07:52.113Z,27.26
2023-04-10T03:08:52.151Z,27.23
2023-04-10T03:09:52.172Z,27.26
2023-04-10T03:10:52.217Z,27.26
2023-04-10T03:11:52.263Z,27.26
2023-04-10T03:12:52.282Z,27.23
2023-04-10T03:13:52.616Z,27.27
2023-04-10T03:14:52.355Z,27.25
2023-04-10T03:15:52.422Z,27.25
2023-04-10T03:16:52.434Z,27.27
2023-04-10T03:17:52.541Z,27.25
2023-04-10T03:18:52.489Z,27.26
2023-04-10T03:19:52.540Z,27.26
2023-04-10T03:20:52.586Z,27.27
2023-04-10T03:21:52.631Z,27.27
2023-04-10T03:22:52.656Z,27.26
2023-04-10T03:23:53.080Z,27.27
2023-04-10T03:24:52.751Z,27.26
2023-04-10T03:25:52.790Z,27.26
2023-04-10T03:26:52.859Z,27.27
2023-04-10T03:27:52.888Z,27.25
2023-04-10T03:28:52.940Z,27.27
2023-04-10T03:29:52.977Z,27.26
2023-04-10T03:30:53.013Z,27.27
2023-04-10T03:31:53.111Z,27.29
2023-04-10T03:32:53.135Z,27.26
2023-04-10T03:33:53.657Z,27.27
2023-04-10T03:34:53.237Z,27.26
2023-04-10T03:35:53.330Z,27.27
2023-04-10T03:36:53.322Z,27.27
2023-04-10T03:37:53.340Z,27.27
2023-04-10T03:38:53.381Z,27.26
2023-04-10T03:39:53.425Z,27.27
2023-04-10T03:40:53.461Z,27.27
2023-04-10T03:41:53.516Z,27.27
2023-04-10T03:42:53.559Z,27.27
2023-04-10T03:43:53.812Z,27.27
2023-04-10T03:44:53.643Z,27.27
2023-04-10T03:45:53.675Z,27.27
2023-04-10T03:46:53.828Z,27.27
2023-04-10T03:47:53.788Z,27.26
2023-04-10T03:48:54.071Z,27.29
2023-04-10T03:49:53.867Z,27.29
2023-04-10T03:50:53.876Z,27.30
2023-04-10T03:51:53.879Z,27.27
2023-04-10T03:52:53.941Z,27.27
2023-04-10T03:53:54.237Z,27.29
2023-04-10T03:54:54.000Z,27.29
2023-04-10T03:55:54.022Z,27.29
2023-04-10T03:56:54.048Z,27.32
2023-04-10T03:57:54.070Z,27.29
2023-04-10T03:58:54.117Z,27.27
2023-04-10T03:59:54.132Z,27.29
2023-04-10T04:00:54.144Z,27.29
2023-04-10T04:01:54.204Z,27.29
2023-04-10T04:02:54.400Z,27.27
2023-04-10T04:03:54.731Z,27.29
2023-04-10T04:04:54.237Z,27.29
2023-04-10T04:05:54.181Z,27.32
2023-04-10T04:06:54.213Z,27.27
2023-04-10T04:07:54.216Z,27.30
2023-04-10T04:08:54.249Z,27.30
2023-04-10T04:09:56.081Z,27.32
2023-04-10T04:10:54.282Z,27.29
2023-04-10T04:11:54.329Z,27.27
2023-04-10T04:12:54.351Z,27.30
2023-04-10T04:13:54.488Z,27.29
2023-04-10T04:14:54.372Z,27.30
2023-04-10T04:15:54.381Z,27.30
2023-04-10T04:16:54.453Z,27.29
2023-04-10T04:17:54.493Z,27.29
2023-04-10T04:18:54.448Z,27.29
2023-04-10T04:19:54.450Z,27.29
2023-04-10T04:20:54.478Z,27.30
2023-04-10T04:21:54.507Z,27.30
2023-04-10T04:22:54.534Z,27.30
2023-04-10T04:23:54.758Z,27.30
2023-04-10T04:24:54.590Z,27.30
2023-04-10T04:25:54.613Z,27.29
2023-04-10T04:26:54.657Z,27.30
2023-04-10T04:27:54.675Z,27.32
2023-04-10T04:28:54.727Z,27.30
2023-04-10T04:29:54.766Z,27.29
2023-04-10T04:30:54.853Z,27.27
2023-04-10T04:31:54.915Z,27.30
2023-04-10T04:32:55.053Z,27.30
2023-04-10T04:33:55.134Z,27.30
2023-04-10T04:34:55.039Z,27.30
2023-04-10T04:35:55.078Z,27.30
2023-04-10T04:36:55.121Z,27.29
2023-04-10T04:37:55.146Z,27.30
2023-04-10T04:38:55.204Z,27.32
2023-04-10T04:39:55.226Z,27.32
2023-04-10T04:40:55.258Z,27.29
2023-04-10T04:41:55.298Z,27.30
2023-04-10T04:42:55.361Z,27.32
2023-04-10T04:43:55.738Z,27.30
2023-04-10T04:44:55.439Z,27.29
2023-04-10T04:45:55.535Z,27.30
2023-04-10T04:46:55.547Z,27.32
2023-04-10T04:47:55.622Z,27.30
2023-04-10T04:48:55.649Z,27.30
2023-04-10T04:49:55.679Z,27.32
2023-04-10T04:50:55.717Z,27.33
2023-04-10T04:51:55.745Z,27.32
2023-04-10T04:52:55.792Z,27.32
2023-04-10T04:53:56.154Z,27.33
2023-04-10T04:54:55.837Z,27.33
2023-04-10T04:55:56.177Z,27.33
2023-04-10T04:56:55.860Z,27.33
2023-04-10T04:57:55.896Z,27.34
2023-04-10T04:58:56.084Z,27.29
2023-04-10T04:59:55.963Z,27.32
2023-04-10T05:00:56.035Z,27.32
2023-04-10T05:01:56.124Z,27.33
2023-04-10T05:02:56.169Z,27.34
2023-04-10T05:03:56.225Z,27.33
2023-04-10T05:04:56.127Z,27.32
2023-04-10T05:05:56.167Z,27.34
2023-04-10T05:06:56.195Z,27.33
2023-04-10T05:07:56.241Z,27.34
2023-04-10T05:08:56.508Z,27.34
2023-04-10T05:09:56.286Z,27.34
2023-04-10T05:10:56.320Z,27.34
2023-04-10T05:11:56.364Z,27.36
2023-04-10T05:12:56.385Z,27.36
2023-04-10T05:13:56.422Z,27.34
2023-04-10T05:14:56.474Z,27.34
2023-04-10T05:15:56.559Z,27.36
2023-04-10T05:16:56.626Z,27.33
2023-04-10T05:17:56.713Z,27.36
2023-04-10T05:18:56.994Z,27.37
2023-04-10T05:19:56.631Z,27.37
2023-04-10T05:20:56.684Z,27.39
2023-04-10T05:21:56.716Z,27.37
2023-04-10T05:22:56.740Z,27.39
2023-04-10T05:23:56.802Z,27.40
2023-04-10T05:24:56.859Z,27.39
2023-04-10T05:25:56.899Z,27.37
2023-04-10T05:26:56.954Z,27.40
2023-04-10T05:27:56.999Z,27.40
2023-04-10T05:28:57.045Z,27.41
2023-04-10T05:29:57.081Z,27.39
2023-04-10T05:30:57.152Z,27.44
2023-04-10T05:31:57.224Z,27.50
2023-04-10T05:32:57.329Z,27.54
2023-04-10T05:33:57.355Z,27.58
2023-04-10T05:34:57.394Z,27.65
2023-04-10T05:35:57.494Z,27.65
2023-04-10T05:36:59.064Z,27.68
2023-04-10T05:37:57.554Z,27.70
2023-04-10T05:38:57.589Z,27.72
2023-04-10T05:39:57.627Z,27.75
2023-04-10T05:40:57.671Z,27.78
2023-04-10T05:41:57.707Z,27.81
2023-04-10T05:42:57.732Z,27.83
2023-04-10T05:43:57.784Z,27.83
2023-04-10T05:44:57.808Z,27.88
2023-04-10T05:45:57.881Z,27.91
2023-04-10T05:46:57.871Z,27.92
2023-04-10T05:47:57.938Z,27.92
2023-04-10T05:48:57.935Z,27.95
2023-04-10T05:49:57.977Z,28.01
2023-04-10T05:50:58.002Z,28.01
2023-04-10T05:51:57.980Z,28.05
2023-04-10T05:52:58.013Z,28.05
2023-04-10T05:53:58.040Z,28.09
2023-04-10T05:54:58.022Z,28.12
2023-04-10T05:55:58.038Z,28.13
2023-04-10T05:56:58.030Z,28.15
2023-04-10T05:57:58.058Z,28.18
2023-04-10T05:58:58.130Z,28.22
2023-04-10T05:59:58.066Z,28.26
2023-04-10T06:00:58.103Z,28.26
2023-04-10T06:01:58.168Z,28.29
2023-04-10T06:02:58.169Z,28.32
2023-04-10T06:03:58.264Z,28.36
2023-04-10T06:04:58.131Z,28.36
2023-04-10T06:05:58.105Z,28.42
2023-04-10T06:06:58.112Z,28.42
2023-04-10T06:07:58.548Z,28.48
2023-04-10T06:08:58.118Z,28.48
2023-04-10T06:09:58.149Z,28.51
2023-04-10T06:10:58.159Z,28.55
2023-04-10T06:11:58.222Z,28.56
2023-04-10T06:12:58.224Z,28.60
2023-04-10T06:13:58.261Z,28.60
2023-04-10T06:14:58.333Z,28.63
2023-04-10T06:15:58.432Z,28.72
2023-04-10T06:16:58.442Z,28.70
2023-04-10T06:17:58.571Z,28.70
2023-04-10T06:18:58.608Z,28.73
2023-04-10T06:19:58.628Z,28.76
2023-04-10T06:20:58.675Z,28.79
2023-04-10T06:21:58.755Z,28.79
2023-04-10T06:22:58.796Z,28.84
2023-04-10T06:23:58.833Z,28.87
2023-04-10T06:24:58.895Z,28.87
2023-04-10T06:25:58.937Z,28.90
2023-04-10T06:26:59.026Z,28.89
2023-04-10T06:27:59.267Z,28.96
2023-04-10T06:28:59.111Z,28.96
2023-04-10T06:29:59.129Z,28.99
2023-04-10T06:30:59.232Z,29.00
2023-04-10T06:31:59.241Z,29.02
2023-04-10T06:32:59.322Z,29.04
2023-04-10T06:33:59.294Z,29.06
2023-04-10T06:34:59.341Z,29.10
2023-04-10T06:35:59.417Z,29.10
2023-04-10T06:36:59.421Z,29.10
2023-04-10T06:37:59.452Z,29.13
2023-04-10T06:38:59.501Z,29.16
2023-04-10T06:39:59.542Z,29.17
2023-04-10T06:40:59.547Z,29.20
2023-04-10T06:41:59.748Z,29.18
2023-04-10T06:42:59.627Z,29.21
2023-04-10T06:44:01.142Z,29.24
2023-04-10T06:44:59.649Z,29.24
2023-04-10T06:45:59.638Z,29.24
2023-04-10T06:46:59.694Z,29.27
2023-04-10T06:47:59.650Z,29.30
2023-04-10T06:48:59.616Z,29.31
2023-04-10T06:49:59.606Z,29.31
2023-04-10T06:50:59.581Z,29.35
2023-04-10T06:51:59.603Z,29.35
2023-04-10T06:52:59.585Z,29.35
2023-04-10T06:53:59.568Z,29.40
2023-04-10T06:54:59.784Z,29.41
2023-04-10T06:56:01.544Z,29.43
2023-04-10T06:56:59.555Z,29.44
2023-04-10T06:57:59.535Z,29.45
2023-04-10T06:58:59.547Z,29.47
2023-04-10T06:59:59.527Z,29.51
2023-04-10T07:00:59.551Z,29.53
2023-04-10T07:01:59.547Z,29.50
2023-04-10T07:02:59.585Z,29.51
2023-04-10T07:03:59.546Z,29.53
2023-04-10T07:04:59.499Z,29.55
2023-04-10T07:05:59.476Z,29.55
2023-04-10T07:06:59.487Z,29.58
2023-04-10T07:07:59.488Z,29.58
2023-04-10T07:08:59.472Z,29.63
2023-04-10T07:09:59.486Z,29.64
2023-04-10T07:10:59.444Z,29.63
2023-04-10T07:11:59.446Z,29.68
2023-04-10T07:12:59.573Z,29.69
2023-04-10T07:13:59.444Z,29.72
2023-04-10T07:14:59.426Z,29.69
2023-04-10T07:15:59.425Z,29.74
2023-04-10T07:16:59.410Z,29.77
2023-04-10T07:17:59.415Z,29.77
2023-04-10T07:18:59.385Z,29.77
2023-04-10T07:19:59.398Z,29.75
2023-04-10T07:20:59.382Z,29.78
2023-04-10T07:21:59.380Z,29.79
2023-04-10T07:22:59.369Z,29.78
2023-04-10T07:23:59.348Z,29.81
2023-04-10T07:24:59.339Z,29.81
2023-04-10T07:25:59.329Z,29.82
2023-04-10T07:26:59.347Z,29.84
2023-04-10T07:27:59.323Z,29.85
2023-04-10T07:28:59.331Z,29.86
2023-04-10T07:29:59.301Z,29.85
2023-04-10T07:30:59.319Z,29.88
2023-04-10T07:31:59.453Z,29.91
2023-04-10T07:32:59.480Z,29.92
2023-04-10T07:33:59.280Z,29.93
2023-04-10T07:34:59.292Z,29.96
2023-04-10T07:35:59.290Z,29.96
2023-04-10T07:36:59.251Z,29.93
2023-04-10T07:37:59.243Z,29.92
2023-04-10T07:38:59.259Z,29.96
2023-04-10T07:39:59.231Z,29.96
2023-04-10T07:40:59.230Z,29.96
2023-04-10T07:41:59.234Z,30.05
2023-04-10T07:42:59.201Z,30.01
2023-04-10T07:43:59.197Z,30.02
2023-04-10T07:44:59.216Z,30.02
2023-04-10T07:45:59.258Z,30.06
2023-04-10T07:46:59.239Z,30.08
2023-04-10T07:47:59.212Z,30.09
2023-04-10T07:48:59.181Z,30.11
2023-04-10T07:49:59.170Z,30.12
2023-04-10T07:50:59.162Z,30.12
2023-04-10T07:51:59.161Z,30.18
2023-04-10T07:52:59.147Z,30.15
2023-04-10T07:53:59.143Z,30.16
2023-04-10T07:54:59.179Z,30.19
2023-04-10T07:55:59.238Z,30.18
2023-04-10T07:56:59.290Z,30.18
2023-04-10T07:57:59.324Z,30.18
2023-04-10T07:58:59.381Z,30.19
2023-04-10T07:59:59.417Z,30.19
2023-04-10T08:00:59.448Z,30.23
2023-04-10T08:01:59.563Z,30.23
2023-04-10T08:02:59.764Z,30.26
2023-04-10T08:04:00.509Z,30.26
2023-04-10T08:04:59.711Z,30.26
2023-04-10T08:05:59.638Z,30.30
2023-04-10T08:06:59.685Z,30.29
2023-04-10T08:07:59.719Z,30.33
2023-04-10T08:08:59.729Z,30.32
2023-04-10T08:09:59.771Z,30.33
2023-04-10T08:10:59.782Z,30.28
2023-04-10T08:11:59.844Z,30.16
2023-04-10T08:12:59.884Z,30.06
2023-04-10T08:13:59.909Z,30.02
2023-04-10T08:14:59.968Z,29.98
2023-04-10T08:16:00.014Z,29.93
2023-04-10T08:17:00.129Z,29.88
2023-04-10T08:18:00.186Z,29.86
2023-04-10T08:19:00.196Z,29.85
2023-04-10T08:20:00.255Z,29.79
2023-04-10T08:21:00.312Z,29.79
2023-04-10T08:22:00.370Z,29.79
2023-04-10T08:23:09.225Z,29.77
2023-04-10T08:24:01.455Z,29.75
2023-04-10T08:25:00.421Z,29.72
2023-04-10T08:26:00.419Z,29.72
2023-04-10T08:27:00.402Z,29.71
2023-04-10T08:28:00.430Z,29.71
2023-04-10T08:29:00.390Z,29.69
2023-04-10T08:30:00.391Z,29.71
2023-04-10T08:31:00.463Z,29.67
2023-04-10T08:32:00.378Z,29.69
2023-04-10T08:33:00.386Z,29.65
2023-04-10T08:34:00.553Z,29.65
2023-04-10T08:35:00.343Z,29.65
2023-04-10T08:36:00.391Z,29.68
2023-04-10T08:37:00.340Z,29.65
2023-04-10T08:38:12.818Z,29.65
2023-04-10T08:39:01.355Z,29.61
2023-04-10T08:40:00.357Z,29.63
2023-04-10T08:41:00.317Z,29.61
2023-04-10T08:42:00.307Z,29.65
2023-04-10T08:43:00.300Z,29.63
2023-04-10T08:44:00.287Z,29.60
2023-04-10T08:45:00.297Z,29.61
2023-04-10T08:46:00.332Z,29.58
2023-04-10T08:47:00.270Z,29.57
2023-04-10T08:48:00.368Z,29.57
2023-04-10T08:49:00.260Z,29.58
2023-04-10T08:50:00.285Z,29.54
2023-04-10T08:51:00.378Z,29.54
2023-04-10T08:52:00.453Z,29.53
2023-04-10T08:53:00.574Z,29.53
2023-04-10T08:54:00.554Z,29.53
2023-04-10T08:55:00.557Z,29.53
2023-04-10T08:56:00.576Z,29.51
2023-04-10T08:57:00.580Z,29.50
2023-04-10T08:58:01.739Z,29.48
2023-04-10T08:59:00.560Z,29.47
2023-04-10T09:00:04.135Z,29.48
2023-04-10T09:01:01.569Z,29.48
2023-04-10T09:02:00.637Z,29.45
2023-04-10T09:03:00.799Z,29.44
2023-04-10T09:04:01.149Z,29.43
2023-04-10T09:05:00.537Z,29.44
2023-04-10T09:06:00.530Z,29.43
2023-04-10T09:07:00.521Z,29.41
2023-04-10T09:08:00.511Z,29.41
2023-04-10T09:10:00.495Z,29.41
2023-04-10T09:11:00.493Z,29.41
2023-04-10T09:12:00.765Z,29.40
2023-04-10T09:13:00.484Z,29.40
2023-04-10T09:14:00.474Z,29.38
2023-04-10T09:15:00.448Z,29.37
2023-04-10T09:16:00.529Z,29.37
2023-04-10T09:17:00.452Z,29.37
2023-04-10T09:18:00.515Z,29.37
2023-04-10T09:19:00.421Z,29.34
2023-04-10T09:20:00.417Z,29.33
2023-04-10T09:21:00.466Z,29.34
2023-04-10T09:22:00.476Z,29.30
2023-04-10T09:23:00.489Z,29.31
2023-04-10T09:24:00.509Z,29.30
2023-04-10T09:25:00.498Z,29.28
2023-04-10T09:26:00.537Z,29.28
2023-04-10T09:27:00.593Z,29.28
2023-04-10T09:28:00.608Z,29.27
2023-04-10T09:29:00.599Z,29.30
2023-04-10T09:30:00.654Z,29.25
2023-04-10T09:31:00.671Z,29.25
2023-04-10T09:32:00.694Z,29.25
2023-04-10T09:33:02.058Z,29.23
2023-04-10T09:34:00.674Z,29.23
2023-04-10T09:35:00.672Z,29.23
2023-04-10T09:36:00.753Z,29.24
2023-04-10T09:37:00.654Z,29.21
2023-04-10T09:38:00.678Z,29.23
2023-04-10T09:39:00.630Z,29.20
2023-04-10T09:40:00.640Z,29.21
2023-04-10T09:41:00.633Z,29.20
2023-04-10T09:42:00.628Z,29.18
2023-04-10T09:43:00.602Z,29.17
2023-04-10T09:44:00.626Z,29.20
2023-04-10T09:45:00.602Z,29.17
2023-04-10T09:46:00.586Z,29.18
2023-04-10T09:47:00.675Z,29.17
2023-04-10T09:48:00.654Z,29.17
2023-04-10T09:49:00.566Z,29.14
2023-04-10T09:50:00.568Z,29.16
2023-04-10T09:51:00.552Z,29.14
2023-04-10T09:52:00.559Z,29.13
2023-04-10T09:53:00.535Z,29.14
2023-04-10T09:54:00.534Z,29.11
2023-04-10T09:55:00.549Z,29.13
2023-04-10T09:56:00.542Z,29.13
2023-04-10T09:57:00.536Z,29.13
2023-04-10T09:58:00.555Z,29.11
2023-04-10T09:59:00.525Z,29.10
2023-04-10T10:00:00.513Z,29.11
2023-04-10T10:01:00.480Z,29.09
2023-04-10T10:02:00.578Z,29.09
2023-04-10T10:03:00.609Z,29.09
2023-04-10T10:04:00.457Z,29.09
2023-04-10T10:05:00.504Z,29.10
2023-04-10T10:06:00.443Z,29.07
2023-04-10T10:07:00.455Z,29.07
2023-04-10T10:08:00.440Z,29.09
2023-04-10T10:09:00.438Z,29.07
2023-04-10T10:10:00.437Z,29.07
2023-04-10T10:11:00.421Z,29.04
2023-04-10T10:12:00.419Z,29.04
2023-04-10T10:13:00.404Z,29.04
2023-04-10T10:14:00.390Z,29.04
2023-04-10T10:15:00.391Z,29.03
2023-04-10T10:16:00.419Z,29.03
2023-04-10T10:17:00.368Z,29.03
2023-04-10T10:18:00.419Z,29.03
2023-04-10T10:19:00.365Z,29.00
2023-04-10T10:20:00.358Z,29.02
2023-04-10T10:21:00.336Z,28.99
2023-04-10T10:22:00.345Z,28.99
2023-04-10T10:23:00.335Z,29.00
2023-04-10T10:24:00.336Z,28.97
2023-04-10T10:25:00.320Z,28.97
2023-04-10T10:26:02.375Z,28.99
2023-04-10T10:27:00.287Z,28.96
2023-04-10T10:28:00.304Z,28.96
2023-04-10T10:29:00.277Z,28.96
2023-04-10T10:30:02.788Z,28.96
2023-04-10T10:31:01.281Z,28.93
2023-04-10T10:32:00.308Z,28.96
2023-04-10T10:33:00.510Z,28.94
2023-04-10T10:34:00.262Z,28.94
2023-04-10T10:35:00.235Z,28.94
2023-04-10T10:36:00.257Z,28.92
2023-04-10T10:37:00.256Z,28.93
2023-04-10T10:38:00.232Z,28.90
2023-04-10T10:39:00.226Z,28.90
2023-04-10T10:40:00.217Z,28.92
2023-04-10T10:41:00.189Z,28.90
2023-04-10T10:42:00.187Z,28.90
2023-04-10T10:43:00.197Z,28.92
2023-04-10T10:44:00.200Z,28.89
2023-04-10T10:45:00.164Z,28.89
2023-04-10T10:46:00.243Z,28.89
2023-04-10T10:47:00.171Z,28.86
2023-04-10T10:48:00.199Z,28.87
2023-04-10T10:49:00.189Z,28.87
2023-04-10T10:50:00.189Z,28.86
2023-04-10T10:51:00.210Z,28.87
2023-04-10T10:52:00.233Z,28.84
2023-04-10T10:53:00.263Z,28.84
2023-04-10T10:54:00.268Z,28.86
2023-04-10T10:55:00.357Z,28.84
2023-04-10T10:56:00.332Z,28.84
2023-04-10T10:57:00.343Z,28.82
2023-04-10T10:58:00.396Z,28.84
2023-04-10T10:59:00.412Z,28.83
2023-04-10T11:00:00.455Z,28.82
2023-04-10T11:01:00.509Z,28.82
2023-04-10T11:02:00.610Z,28.82
2023-04-10T11:03:00.691Z,28.82
2023-04-10T11:04:00.791Z,28.79
2023-04-10T11:05:00.582Z,28.79
2023-04-10T11:06:00.625Z,28.80
2023-04-10T11:07:00.644Z,28.77
2023-04-10T11:08:00.672Z,28.77
2023-04-10T11:09:00.689Z,28.79
2023-04-10T11:10:00.726Z,28.77
2023-04-10T11:11:00.750Z,28.76
2023-04-10T11:12:00.833Z,28.76
2023-04-10T11:13:00.832Z,28.76
2023-04-10T11:14:00.874Z,28.76
2023-04-10T11:15:00.874Z,28.74
2023-04-10T11:16:00.911Z,28.76
2023-04-10T11:17:01.053Z,28.73
2023-04-10T11:18:01.016Z,28.73
2023-04-10T11:19:13.187Z,28.73
2023-04-10T11:20:02.029Z,28.73
2023-04-10T11:21:01.012Z,28.73
2023-04-10T11:22:00.990Z,28.72
2023-04-10T11:23:00.994Z,28.72
2023-04-10T11:24:00.990Z,28.72
2023-04-10T11:25:00.988Z,28.69
2023-04-10T11:26:00.975Z,28.70
2023-04-10T11:27:00.973Z,28.70
2023-04-10T11:28:00.943Z,28.69
2023-04-10T11:29:00.958Z,28.67
2023-04-10T11:30:00.945Z,28.66
2023-04-10T11:31:00.972Z,28.67
2023-04-10T11:32:01.086Z,28.67
2023-04-10T11:33:01.125Z,28.66
2023-04-10T11:34:01.084Z,28.64
2023-04-10T11:35:01.888Z,28.64
2023-04-10T11:36:01.383Z,28.64
2023-04-10T11:37:01.398Z,28.66
2023-04-10T11:38:01.442Z,28.64
2023-04-10T11:39:01.466Z,28.64
2023-04-10T11:40:01.532Z,28.64
2023-04-10T11:41:01.641Z,28.63
2023-04-10T11:42:01.626Z,28.62
2023-04-10T11:43:01.663Z,28.62
2023-04-10T11:44:01.790Z,28.60
2023-04-10T11:45:01.772Z,28.60
2023-04-10T11:46:01.814Z,28.59
2023-04-10T11:47:01.878Z,28.58
2023-04-10T11:48:01.942Z,28.59
2023-04-10T11:49:01.998Z,28.58
2023-04-10T11:50:02.002Z,28.59
2023-04-10T11:51:02.026Z,28.56
2023-04-10T11:52:02.071Z,28.58
2023-04-10T11:53:02.147Z,28.56
2023-04-10T11:54:02.164Z,28.53
2023-04-10T11:55:02.226Z,28.55
2023-04-10T11:56:02.290Z,28.56
2023-04-10T11:57:02.340Z,28.55
2023-04-10T11:58:02.373Z,28.53
2023-04-10T11:59:02.416Z,28.52
2023-04-10T12:00:02.472Z,28.52
2023-04-10T12:01:02.545Z,28.51
2023-04-10T12:02:02.648Z,28.52
2023-04-10T12:03:02.907Z,28.51
2023-04-10T12:04:02.755Z,28.51
2023-04-10T12:05:02.844Z,28.51
2023-04-10T12:06:02.768Z,28.49
2023-04-10T12:07:02.977Z,28.49
2023-04-10T12:08:03.023Z,28.49
2023-04-10T12:09:02.964Z,28.46
2023-04-10T12:10:03.022Z,28.48
2023-04-10T12:11:03.054Z,28.46
2023-04-10T12:12:03.122Z,28.46
2023-04-10T12:13:03.184Z,28.45
2023-04-10T12:14:03.243Z,28.46
2023-04-10T12:15:03.419Z,28.46
2023-04-10T12:16:03.396Z,28.43
2023-04-10T12:17:03.403Z,28.45
2023-04-10T12:18:03.619Z,28.43
2023-04-10T12:19:03.551Z,28.43
2023-04-10T12:20:03.574Z,28.43
2023-04-10T12:21:04.244Z,28.43
2023-04-10T12:22:03.701Z,28.42
2023-04-10T12:23:03.767Z,28.43
2023-04-10T12:24:03.823Z,28.42
2023-04-10T12:25:03.887Z,28.41
2023-04-10T12:26:03.973Z,28.42
2023-04-10T12:27:04.002Z,28.39
2023-04-10T12:28:04.059Z,28.38
2023-04-10T12:29:04.128Z,28.38
2023-04-10T12:30:04.175Z,28.39
2023-04-10T12:31:04.272Z,28.38
2023-04-10T12:32:04.295Z,28.35
2023-04-10T12:33:04.476Z,28.36
2023-04-10T12:34:04.477Z,28.36
2023-04-10T12:35:04.454Z,28.38
2023-04-10T12:36:04.560Z,28.38
2023-04-10T12:37:04.612Z,28.36
2023-04-10T12:38:04.658Z,28.38
2023-04-10T12:39:04.708Z,28.36
2023-04-10T12:40:04.781Z,28.38
2023-04-10T12:41:04.837Z,28.35
2023-04-10T12:42:04.887Z,28.36
2023-04-10T12:43:04.944Z,28.35
2023-04-10T12:44:04.982Z,28.35
2023-04-10T12:45:05.152Z,28.35
2023-04-10T12:46:05.155Z,28.35
2023-04-10T12:47:05.176Z,28.34
2023-04-10T12:48:05.302Z,28.35
2023-04-10T12:49:05.282Z,28.35
2023-04-10T12:50:05.330Z,28.35
2023-04-10T12:51:05.397Z,28.35
2023-04-10T12:52:05.453Z,28.34
2023-04-10T12:53:06.444Z,28.34
2023-04-10T12:54:05.560Z,28.34